Terminal Aerodrome Forecast
Issued by NWS

Home | Current Version | Previous Version | Graphics & Text | Print | Product List | Glossary On
Versions: 1 2 3 4 5 6 7 8 9 10 11 12 13 14 15 16 17 18 19
000
FTUS45 KGGW 182321
TAFOLF
TAF
KOLF 182321Z 1900/1924 08010KT P6SM BKN080
     FM190300 08010KT P6SM BKN050
     FM191200 08008KT P6SM BKN030
     FM192100 VRB04KT P6SM BKN020=

USA.gov is the U.S. government's official web portal to all federal, state and local government web resources and services.